createdAt,value
2023-04-24T00:01:56.293Z,12.35
2023-04-24T00:04:46.130Z,12.29
2023-04-24T00:07:37.012Z,12.28
2023-04-24T00:10:26.312Z,12.22
2023-04-24T00:13:15.531Z,12.18
2023-04-24T00:16:06.386Z,12.14
2023-04-24T00:18:55.698Z,12.08
2023-04-24T00:21:45.025Z,12.09
2023-04-24T00:24:36.031Z,12.04
2023-04-24T00:27:25.661Z,12.05
2023-04-24T00:30:15.399Z,12.01
2023-04-24T00:33:05.002Z,11.98
2023-04-24T00:35:54.200Z,11.95
2023-04-24T00:38:43.537Z,11.91
2023-04-24T00:41:34.176Z,11.80
2023-04-24T00:44:23.716Z,11.81
2023-04-24T00:47:14.123Z,11.75
2023-04-24T00:50:07.129Z,11.59
2023-04-24T00:52:57.388Z,11.72
2023-04-24T00:55:47.149Z,11.70
2023-04-24T00:58:37.945Z,11.60
2023-04-24T01:01:27.342Z,11.56
2023-04-24T01:04:19.420Z,11.59
2023-04-24T01:07:11.743Z,11.53
2023-04-24T01:10:01.142Z,11.47
2023-04-24T01:12:50.445Z,11.33
2023-04-24T01:15:41.197Z,11.39
2023-04-24T01:18:31.080Z,11.38
2023-04-24T01:21:22.977Z,11.34
2023-04-24T01:24:15.173Z,11.29
2023-04-24T01:27:04.544Z,11.25
2023-04-24T01:29:54.659Z,11.25
2023-04-24T01:32:46.013Z,11.26
2023-04-24T01:35:35.592Z,11.26
2023-04-24T01:38:24.860Z,11.26
2023-04-24T01:41:15.532Z,11.29
2023-04-24T01:44:05.508Z,11.35
2023-04-24T01:46:55.263Z,11.35
2023-04-24T01:49:44.836Z,11.42
2023-04-24T01:52:37.189Z,11.35
2023-04-24T01:55:26.630Z,11.46
2023-04-24T01:58:17.431Z,11.50
2023-04-24T02:01:08.595Z,11.49
2023-04-24T02:03:57.860Z,11.52
2023-04-24T02:06:47.242Z,11.53
2023-04-24T02:09:36.594Z,11.55
2023-04-24T02:12:25.930Z,11.57
2023-04-24T02:15:16.533Z,11.60
2023-04-24T02:18:05.986Z,11.64
2023-04-24T02:20:55.558Z,11.66
2023-04-24T02:23:44.759Z,11.68
2023-04-24T02:26:35.817Z,11.65
2023-04-24T02:29:25.006Z,11.74
2023-04-24T02:32:16.875Z,11.76
2023-04-24T02:35:07.503Z,11.74
2023-04-24T02:37:56.846Z,11.82
2023-04-24T02:40:46.098Z,11.79
2023-04-24T02:43:35.623Z,11.67
2023-04-24T02:46:25.027Z,11.71
2023-04-24T02:49:15.801Z,11.80
2023-04-24T02:52:05.070Z,11.77
2023-04-24T02:54:55.966Z,11.81
2023-04-24T02:57:45.476Z,11.83
2023-04-24T03:00:35.120Z,11.83
2023-04-24T03:03:25.302Z,11.84
2023-04-24T03:06:16.660Z,11.84
2023-04-24T03:09:06.367Z,11.84
2023-04-24T03:11:56.685Z,11.82
2023-04-24T03:14:47.870Z,11.84
2023-04-24T03:17:38.143Z,11.78
2023-04-24T03:20:27.493Z,11.77
2023-04-24T03:23:20.786Z,11.71
2023-04-24T03:26:10.610Z,11.63
2023-04-24T03:29:05.680Z,11.66
2023-04-24T03:31:55.016Z,11.66
2023-04-24T03:34:44.430Z,11.65
2023-04-24T03:37:36.886Z,11.66
2023-04-24T03:41:00.030Z,11.69
2023-04-24T03:44:15.648Z,11.70
2023-04-24T03:47:05.597Z,11.65
2023-04-24T03:49:56.854Z,11.63
2023-04-24T03:52:46.337Z,11.59
2023-04-24T03:55:45.224Z,11.58
2023-04-24T03:58:36.373Z,11.56
2023-04-24T04:01:25.728Z,11.51
2023-04-24T04:04:23.146Z,11.51
2023-04-24T04:07:14.064Z,11.52
2023-04-24T04:10:03.566Z,11.49
2023-04-24T04:12:52.770Z,11.37
2023-04-24T04:15:43.633Z,11.40
2023-04-24T04:18:33.244Z,11.32
2023-04-24T04:21:23.619Z,11.21
2023-04-24T04:24:18.537Z,11.25
2023-04-24T04:27:09.993Z,11.18
2023-04-24T04:30:10.860Z,11.23
2023-04-24T04:33:12.282Z,11.22
2023-04-24T04:36:03.526Z,11.20
2023-04-24T04:38:55.786Z,11.24
2023-04-24T04:42:24.755Z,11.19
2023-04-24T04:45:14.335Z,11.14
2023-04-24T04:48:24.085Z,11.09
2023-04-24T04:51:14.698Z,10.98
2023-04-24T04:54:04.136Z,10.84
2023-04-24T04:56:53.595Z,10.51
2023-04-24T04:59:43.306Z,10.17
2023-04-24T05:02:39.094Z,9.99
2023-04-24T05:05:30.047Z,9.91
2023-04-24T05:08:27.074Z,9.84
2023-04-24T05:11:17.266Z,9.72
2023-04-24T05:14:06.726Z,9.73
2023-04-24T05:17:01.407Z,9.67
2023-04-24T05:19:50.795Z,9.64
2023-04-24T05:22:41.751Z,9.63
2023-04-24T05:25:33.310Z,9.69
2023-04-24T05:28:29.452Z,9.62
2023-04-24T05:31:27.805Z,9.62
2023-04-24T05:34:17.846Z,9.62
2023-04-24T05:37:10.956Z,9.51
2023-04-24T05:40:01.764Z,9.44
2023-04-24T05:42:51.040Z,9.45
2023-04-24T05:45:40.773Z,9.37
2023-04-24T05:48:29.970Z,9.37
2023-04-24T05:51:19.236Z,9.27
2023-04-24T05:54:08.814Z,9.22
2023-04-24T05:56:59.812Z,9.19
2023-04-24T06:00:00.209Z,9.19
2023-04-24T06:02:50.179Z,9.04
2023-04-24T06:05:39.877Z,8.95
2023-04-24T06:08:29.632Z,8.92
2023-04-24T06:11:19.385Z,8.86
2023-04-24T06:14:10.549Z,8.81
2023-04-24T06:17:00.058Z,8.84
2023-04-24T06:19:56.823Z,8.86
2023-04-24T06:22:47.952Z,8.77
2023-04-24T06:25:37.391Z,8.77
2023-04-24T06:28:27.248Z,8.83
2023-04-24T06:31:17.921Z,8.88
2023-04-24T06:34:07.306Z,8.83
2023-04-24T06:36:57.169Z,8.79
2023-04-24T06:39:46.580Z,8.80
2023-04-24T06:42:36.086Z,8.71
2023-04-24T06:45:27.006Z,8.78
2023-04-24T06:48:17.877Z,8.70
2023-04-24T06:51:07.321Z,8.66
2023-04-24T06:53:57.103Z,8.66
2023-04-24T06:56:47.758Z,8.62
2023-04-24T06:59:39.470Z,8.63
2023-04-24T07:02:29.119Z,8.61
2023-04-24T07:05:21.178Z,8.59
2023-04-24T07:08:12.527Z,8.56
2023-04-24T07:11:02.270Z,8.57
2023-04-24T07:13:51.667Z,8.61
2023-04-24T07:16:41.346Z,8.56
2023-04-24T07:19:30.793Z,8.54
2023-04-24T07:22:21.967Z,8.51
2023-04-24T07:25:11.921Z,8.51
2023-04-24T07:28:01.483Z,8.50
2023-04-24T07:30:50.759Z,8.50
2023-04-24T07:33:40.299Z,8.46
2023-04-24T07:36:29.614Z,8.60
2023-04-24T07:39:22.455Z,8.58
2023-04-24T07:42:12.015Z,8.64
2023-04-24T07:45:01.603Z,8.68
2023-04-24T07:47:52.560Z,8.76
2023-04-24T07:50:41.847Z,8.86
2023-04-24T07:53:31.074Z,8.91
2023-04-24T07:56:21.719Z,8.91
2023-04-24T07:59:11.399Z,8.94
2023-04-24T08:02:02.398Z,8.91
2023-04-24T08:04:52.153Z,8.91
2023-04-24T08:07:43.761Z,8.97
2023-04-24T08:10:33.292Z,9.02
2023-04-24T08:13:24.457Z,9.01
2023-04-24T08:16:13.998Z,8.99
2023-04-24T08:19:03.422Z,9.03
2023-04-24T08:21:52.748Z,9.15
2023-04-24T08:24:41.994Z,9.19
2023-04-24T08:27:31.275Z,9.28
2023-04-24T08:30:22.030Z,9.33
2023-04-24T08:33:11.368Z,9.41
2023-04-24T08:36:01.833Z,9.49
2023-04-24T08:38:51.462Z,9.68
2023-04-24T08:41:44.045Z,9.76
2023-04-24T08:44:34.716Z,9.82
2023-04-24T08:47:26.672Z,9.81
2023-04-24T08:50:16.399Z,9.94
2023-04-24T08:53:06.274Z,9.96
2023-04-24T08:55:58.182Z,10.00
2023-04-24T08:58:47.779Z,10.13
2023-04-24T09:01:40.891Z,10.14
2023-04-24T09:07:21.811Z,10.15
2023-04-24T09:10:11.487Z,10.02
2023-04-24T09:13:03.663Z,9.92
2023-04-24T09:15:53.405Z,9.73
2023-04-24T09:18:42.781Z,9.74
2023-04-24T09:21:37.074Z,9.75
2023-04-24T09:24:26.743Z,9.90
2023-04-24T09:27:17.691Z,10.00
2023-04-24T09:30:09.362Z,10.18
2023-04-24T09:33:14.745Z,10.23
2023-04-24T09:36:05.015Z,10.28
2023-04-24T09:39:00.467Z,10.30
2023-04-24T09:41:51.772Z,10.37
2023-04-24T09:44:41.727Z,10.29
2023-04-24T09:47:38.951Z,10.30
2023-04-24T09:50:28.142Z,10.34
2023-04-24T09:53:17.454Z,10.38
2023-04-24T09:56:11.446Z,10.49
2023-04-24T09:59:08.324Z,10.57
2023-04-24T10:01:59.853Z,10.69
2023-04-24T10:04:57.958Z,10.76
2023-04-24T10:07:49.576Z,10.79
2023-04-24T10:10:42.855Z,10.84
2023-04-24T10:13:34.585Z,11.05
2023-04-24T10:16:24.766Z,11.27
2023-04-24T10:19:14.262Z,11.40
2023-04-24T10:22:05.996Z,11.68
2023-04-24T10:24:56.487Z,12.20
2023-04-24T10:27:47.528Z,12.83
2023-04-24T10:30:38.440Z,13.16
2023-04-24T10:33:29.352Z,13.32
2023-04-24T10:36:20.164Z,13.51
2023-04-24T10:39:14.115Z,13.59
2023-04-24T10:42:03.492Z,13.63
2023-04-24T10:44:53.168Z,13.60
2023-04-24T10:47:45.386Z,13.47
2023-04-24T10:50:47.035Z,13.21
2023-04-24T10:53:38.000Z,13.13
2023-04-24T10:56:28.295Z,12.97
2023-04-24T10:59:27.525Z,12.74
2023-04-24T11:02:18.218Z,12.64
2023-04-24T11:05:12.241Z,12.63
2023-04-24T11:08:17.289Z,12.45
2023-04-24T11:11:12.580Z,12.46
2023-04-24T11:14:10.200Z,12.29
2023-04-24T11:17:00.859Z,12.31
2023-04-24T11:19:54.665Z,12.30
2023-04-24T11:22:46.813Z,12.43
2023-04-24T11:25:37.808Z,12.51
2023-04-24T11:28:27.788Z,12.74
2023-04-24T11:31:40.736Z,13.18
2023-04-24T11:34:30.170Z,13.41
2023-04-24T11:37:19.870Z,13.47
2023-04-24T11:40:13.351Z,13.33
2023-04-24T11:43:03.267Z,13.28
2023-04-24T11:45:52.917Z,13.10
2023-04-24T11:48:49.505Z,13.11
2023-04-24T11:51:52.185Z,13.38
2023-04-24T11:54:51.276Z,13.91
2023-04-24T11:57:45.462Z,14.31
2023-04-24T12:00:36.759Z,14.45
2023-04-24T12:03:26.379Z,14.47
2023-04-24T12:06:16.041Z,14.41
2023-04-24T12:09:17.355Z,14.30
2023-04-24T12:12:11.265Z,13.92
2023-04-24T12:15:08.985Z,13.54
2023-04-24T12:17:59.044Z,13.30
2023-04-24T12:20:48.358Z,13.07
2023-04-24T12:23:38.355Z,12.79
2023-04-24T12:26:30.153Z,12.74
2023-04-24T12:29:22.830Z,12.72
2023-04-24T12:32:20.293Z,12.72
2023-04-24T12:35:10.766Z,12.73
2023-04-24T12:38:09.111Z,12.84
2023-04-24T12:41:06.421Z,12.89
2023-04-24T12:43:56.767Z,12.92
2023-04-24T12:46:46.638Z,12.95
2023-04-24T12:49:37.458Z,13.09
2023-04-24T12:52:27.773Z,13.21
2023-04-24T12:55:17.602Z,13.40
2023-04-24T12:58:06.874Z,13.48
2023-04-24T13:00:56.273Z,13.56
2023-04-24T13:03:46.472Z,13.63
2023-04-24T13:06:37.496Z,13.67
2023-04-24T13:09:26.683Z,13.70
2023-04-24T13:12:16.002Z,13.59
2023-04-24T13:15:06.328Z,13.44
2023-04-24T13:17:56.415Z,13.30
2023-04-24T13:20:46.950Z,13.26
2023-04-24T13:23:37.659Z,13.24
2023-04-24T13:26:27.171Z,13.13
2023-04-24T13:29:16.338Z,12.87
2023-04-24T13:32:06.698Z,12.84
2023-04-24T13:34:56.077Z,12.75
2023-04-24T13:37:45.342Z,12.76
2023-04-24T13:40:36.577Z,12.71
2023-04-24T13:43:25.805Z,12.71
2023-04-24T13:46:15.234Z,12.73
2023-04-24T13:49:05.798Z,12.68
2023-04-24T13:51:56.357Z,12.69
2023-04-24T13:54:45.788Z,12.74
2023-04-24T13:57:36.695Z,12.81
2023-04-24T14:00:26.286Z,12.87
2023-04-24T14:03:15.717Z,12.98
2023-04-24T14:06:05.301Z,12.99
2023-04-24T14:08:54.945Z,13.05
2023-04-24T14:11:44.461Z,12.97
2023-04-24T14:14:35.309Z,13.06
2023-04-24T14:17:24.722Z,13.06
2023-04-24T14:20:15.255Z,13.10
2023-04-24T14:23:05.085Z,13.06
2023-04-24T14:25:54.504Z,12.98
2023-04-24T14:28:43.880Z,12.95
2023-04-24T14:31:34.924Z,12.89
2023-04-24T14:34:24.189Z,13.00
2023-04-24T14:37:13.733Z,12.93
2023-04-24T14:40:15.758Z,12.91
2023-04-24T14:43:10.120Z,12.87
2023-04-24T14:45:59.392Z,12.75
2023-04-24T14:48:50.168Z,12.64
2023-04-24T14:51:39.665Z,12.66
2023-04-24T14:54:30.310Z,12.63
2023-04-24T14:57:19.695Z,12.65
2023-04-24T15:00:11.237Z,12.75
2023-04-24T15:03:01.168Z,12.82
2023-04-24T15:05:52.925Z,12.76
2023-04-24T15:08:43.123Z,12.98
2023-04-24T15:11:32.519Z,12.96
2023-04-24T15:14:21.911Z,13.10
2023-04-24T15:17:11.748Z,13.06
2023-04-24T15:20:02.002Z,13.07
2023-04-24T15:22:53.044Z,13.13
2023-04-24T15:25:42.628Z,13.12
2023-04-24T15:28:32.020Z,13.27
2023-04-24T15:31:21.530Z,13.42
2023-04-24T15:34:10.909Z,13.43
2023-04-24T15:37:00.197Z,13.52
2023-04-24T15:39:51.843Z,13.55
2023-04-24T15:42:41.221Z,13.59
2023-04-24T15:45:31.300Z,13.66
2023-04-24T15:48:21.561Z,13.68
2023-04-24T15:51:10.990Z,13.62
2023-04-24T15:54:00.794Z,13.77
2023-04-24T15:56:52.844Z,13.91
2023-04-24T15:59:42.115Z,13.98
2023-04-24T16:02:31.594Z,14.06
2023-04-24T16:05:22.926Z,14.06
2023-04-24T16:08:14.250Z,13.99
2023-04-24T16:11:03.688Z,13.92
2023-04-24T16:13:54.403Z,13.89
2023-04-24T16:16:43.816Z,13.75
2023-04-24T16:19:34.713Z,13.67
2023-04-24T16:22:24.101Z,13.55
2023-04-24T16:25:13.586Z,13.41
2023-04-24T16:28:03.275Z,13.25
2023-04-24T16:30:54.073Z,13.19
2023-04-24T16:33:43.645Z,13.23
2023-04-24T16:36:33.037Z,13.02
2023-04-24T16:39:22.926Z,12.91
2023-04-24T16:42:13.340Z,12.76
2023-04-24T16:45:03.103Z,12.70
2023-04-24T16:47:54.606Z,12.56
2023-04-24T16:50:43.936Z,12.53
2023-04-24T16:53:33.178Z,12.51
2023-04-24T16:56:22.609Z,12.49
2023-04-24T16:59:11.968Z,12.48
2023-04-24T17:02:01.271Z,12.33
2023-04-24T17:04:52.225Z,12.25
2023-04-24T17:07:41.831Z,12.35
2023-04-24T17:10:31.144Z,12.33
2023-04-24T17:13:20.521Z,12.37
2023-04-24T17:16:09.889Z,12.35
2023-04-24T17:18:59.330Z,12.30
2023-04-24T17:21:49.964Z,12.37
2023-04-24T17:24:39.484Z,12.43
2023-04-24T17:27:29.248Z,12.43
2023-04-24T17:30:18.771Z,12.48
2023-04-24T17:33:08.052Z,12.50
2023-04-24T17:35:58.145Z,12.51
2023-04-24T17:38:49.117Z,12.61
2023-04-24T17:41:38.717Z,12.75
2023-04-24T17:44:28.050Z,12.72
2023-04-24T17:47:17.274Z,12.78
2023-04-24T17:50:07.666Z,12.82
2023-04-24T17:52:57.011Z,12.81
2023-04-24T17:55:47.837Z,12.82
2023-04-24T17:58:37.327Z,12.84
2023-04-24T18:01:28.104Z,12.85
2023-04-24T18:04:18.633Z,12.80
2023-04-24T18:07:07.939Z,12.78
2023-04-24T18:09:57.327Z,12.70
2023-04-24T18:12:49.120Z,12.58
2023-04-24T18:15:42.127Z,12.57
2023-04-24T18:18:31.374Z,12.43
2023-04-24T18:21:21.021Z,12.43
2023-04-24T18:24:10.898Z,12.38
2023-04-24T18:27:00.272Z,12.31
2023-04-24T18:29:50.943Z,12.19
2023-04-24T18:32:40.672Z,11.97
2023-04-24T18:35:29.989Z,11.90
2023-04-24T18:38:19.390Z,11.82
2023-04-24T18:41:08.774Z,11.74
2023-04-24T18:43:59.417Z,11.58
2023-04-24T18:46:50.207Z,11.44
2023-04-24T18:49:39.792Z,11.48
2023-04-24T18:52:29.181Z,11.41
2023-04-24T18:55:18.489Z,11.41
2023-04-24T18:58:08.197Z,11.34
2023-04-24T19:00:57.627Z,11.34
2023-04-24T19:03:48.647Z,11.36
2023-04-24T19:06:38.178Z,11.41
2023-04-24T19:09:27.570Z,11.20
2023-04-24T19:12:17.816Z,11.37
2023-04-24T19:15:12.026Z,11.39
2023-04-24T19:18:01.362Z,11.37
2023-04-24T19:20:52.571Z,11.31
2023-04-24T19:23:43.931Z,11.21
2023-04-24T19:26:33.124Z,11.18
2023-04-24T19:29:22.436Z,11.11
2023-04-24T19:32:11.719Z,11.04
2023-04-24T19:35:01.130Z,10.92
2023-04-24T19:37:51.848Z,10.85
2023-04-24T19:40:41.200Z,10.77
2023-04-24T19:43:30.443Z,10.73
2023-04-24T19:46:19.837Z,10.67
2023-04-24T19:49:09.282Z,10.59
2023-04-24T19:51:58.560Z,10.51
2023-04-24T19:54:51.263Z,10.48
2023-04-24T19:57:40.859Z,10.43
2023-04-24T20:00:30.148Z,10.30
2023-04-24T20:03:32.039Z,10.32
2023-04-24T20:06:22.557Z,10.25
2023-04-24T20:09:11.821Z,10.16
2023-04-24T20:12:02.955Z,10.15
2023-04-24T20:14:52.489Z,10.11
2023-04-24T20:17:41.944Z,10.01
2023-04-24T20:20:31.361Z,9.88
2023-04-24T20:23:20.598Z,9.95
2023-04-24T20:26:11.346Z,9.90
2023-04-24T20:29:02.044Z,9.85
2023-04-24T20:31:51.674Z,9.79
2023-04-24T20:34:41.058Z,9.71
2023-04-24T20:37:30.430Z,9.71
2023-04-24T20:40:19.806Z,9.67
2023-04-24T20:43:09.142Z,9.54
2023-04-24T20:45:59.969Z,9.54
2023-04-24T20:48:49.460Z,9.50
2023-04-24T20:51:39.017Z,9.46
2023-04-24T20:54:28.640Z,9.44
2023-04-24T20:57:17.958Z,9.42
2023-04-24T21:00:09.106Z,9.34
2023-04-24T21:02:59.947Z,9.35
2023-04-24T21:05:49.589Z,9.29
2023-04-24T21:08:38.902Z,9.31
2023-04-24T21:11:28.068Z,9.28
2023-04-24T21:14:17.322Z,9.24
2023-04-24T21:17:06.617Z,9.19
2023-04-24T21:19:57.598Z,9.18
2023-04-24T21:22:46.894Z,9.19
2023-04-24T21:25:37.040Z,9.17
2023-04-24T21:28:27.008Z,9.11
2023-04-24T21:31:16.691Z,9.07
2023-04-24T21:34:05.998Z,9.00
2023-04-24T21:36:56.570Z,8.89
2023-04-24T21:39:46.559Z,8.86
2023-04-24T21:42:36.066Z,8.78
2023-04-24T21:45:25.665Z,8.79
2023-04-24T21:48:15.114Z,8.72
2023-04-24T21:51:04.462Z,8.68
2023-04-24T21:53:55.267Z,8.59
2023-04-24T21:56:45.742Z,8.62
2023-04-24T21:59:36.215Z,8.52
2023-04-24T22:02:27.119Z,8.47
2023-04-24T22:05:18.496Z,8.41
2023-04-24T22:08:11.734Z,8.38
2023-04-24T22:11:02.746Z,8.38
2023-04-24T22:13:52.729Z,8.39
2023-04-24T22:16:42.290Z,8.44
2023-04-24T22:19:32.274Z,8.47
2023-04-24T22:22:21.950Z,8.52
2023-04-24T22:25:11.711Z,8.57
2023-04-24T22:28:02.430Z,8.66
2023-04-24T22:30:51.852Z,8.66
2023-04-24T22:33:41.130Z,8.82
2023-04-24T22:36:31.753Z,8.88
2023-04-24T22:39:21.838Z,8.96
2023-04-24T22:42:11.362Z,8.82
2023-04-24T22:45:02.151Z,9.11
2023-04-24T22:47:51.735Z,9.18
2023-04-24T22:50:41.005Z,9.21
2023-04-24T22:53:30.239Z,9.21
2023-04-24T22:56:19.851Z,9.17
2023-04-24T22:59:09.147Z,9.16
2023-04-24T23:02:01.103Z,9.14
2023-04-24T23:04:50.482Z,9.07
2023-04-24T23:07:39.989Z,8.94
2023-04-24T23:10:30.138Z,8.93
2023-04-24T23:13:20.216Z,8.88
2023-04-24T23:16:10.049Z,8.76
2023-04-24T23:19:00.752Z,8.73
2023-04-24T23:21:50.650Z,8.71
2023-04-24T23:24:39.853Z,8.63
2023-04-24T23:27:29.238Z,8.68
2023-04-24T23:30:18.679Z,8.69
2023-04-24T23:33:08.002Z,8.73
2023-04-24T23:35:59.334Z,8.78
2023-04-24T23:38:50.511Z,8.80
2023-04-24T23:41:40.066Z,8.80
2023-04-24T23:44:29.872Z,8.81
2023-04-24T23:47:19.394Z,8.82
2023-04-24T23:50:09.441Z,8.86
2023-04-24T23:53:01.235Z,8.88
2023-04-24T23:55:50.520Z,8.85
2023-04-24T23:58:39.808Z,8.91
